Distant Drummer — MPSD7 — position and weather

sailwx.info

Track history (hours):
 
Tides and Currents Weather Stations Pressure Air Temp Water Temp Dewpoint Dewpoint Depression Visibility Wind Speed Wind Dir Waves Ship Positions

Distant Drummer

Last reported at 2017-Nov-01 22:54 UTC. Time now 2017-Nov-22 13:08 UTC.
Position N 32°48' W 117°18'.
Warning: this ship's position is 20 days out of date.

Length 14 m.

Type: Sailing vessel. MMSI: 235040169.

Date/timePositionNaut miles runAvg speedWind from/ knotsBaromVisibWave heightAir tempDewpointWater temp
2017-Nov-01 22:54N 32°48' W 117°18'2 5.2
2017-Nov-01 22:30N 32°50' W 117°19'3 6.5
2017-Nov-01 22:00N 32°53' W 117°21'3 6.1
2017-Nov-01 21:30N 32°56' W 117°23'3 5.4
2017-Nov-01 21:00N 32°58' W 117°24'3 5.2
2017-Nov-01 20:30N 33°01' W 117°25'3 5.1
2017-Nov-01 20:00N 33°03' W 117°27'2 4.5
2017-Nov-01 19:30N 33°05' W 117°28'2 4.5
2017-Nov-01 19:00N 33°07' W 117°29'3 5.3
2017-Nov-01 18:29N 33°09' W 117°31'  
2017-Oct-27 00:41N 33°43' W 118°17'1 2.7
2017-Oct-27 00:30N 33°43' W 118°17'1 2.8
2017-Oct-27 00:00N 33°42' W 118°16'15 5.3
2017-Oct-26 21:04N 33°32' W 118°31'1 5.5
2017-Oct-26 20:57N 33°32' W 118°31'  
2017-Oct-23 23:15N 33°26' W 118°34'2 5.7
2017-Oct-23 22:59N 33°27' W 118°35'21 4.4
2017-Oct-23 18:13N 33°42' W 118°18'1 4.9
2017-Oct-23 18:00N 33°42' W 118°17'1 2.4
2017-Oct-23 17:30N 33°43' W 118°16'  
Track history (hours):
 
Tides and Currents Weather Stations Pressure Air Temp Water Temp Dewpoint Dewpoint Depression Visibility Wind Speed Wind Dir Waves Ship Positions

Distant Drummer

Last reported at 2017-Nov-01 22:54 UTC. Time now 2017-Nov-22 13:08 UTC.
Position N 32°48' W 117°18'.
Warning: this ship's position is 20 days out of date.

Length 14 m.

Type: Sailing vessel. MMSI: 235040169.

Date/timePositionNaut miles runAvg speedWind from/ knotsBaromVisibWave heightAir tempDewpointWater temp
2017-Nov-01 22:54N 32°48' W 117°18'2 5.2
2017-Nov-01 22:30N 32°50' W 117°19'3 6.5
2017-Nov-01 22:00N 32°53' W 117°21'3 6.1
2017-Nov-01 21:30N 32°56' W 117°23'3 5.4
2017-Nov-01 21:00N 32°58' W 117°24'3 5.2
2017-Nov-01 20:30N 33°01' W 117°25'3 5.1
2017-Nov-01 20:00N 33°03' W 117°27'2 4.5
2017-Nov-01 19:30N 33°05' W 117°28'2 4.5
2017-Nov-01 19:00N 33°07' W 117°29'3 5.3
2017-Nov-01 18:29N 33°09' W 117°31'  
2017-Oct-27 00:41N 33°43' W 118°17'1 2.7
2017-Oct-27 00:30N 33°43' W 118°17'1 2.8
2017-Oct-27 00:00N 33°42' W 118°16'15 5.3
2017-Oct-26 21:04N 33°32' W 118°31'1 5.5
2017-Oct-26 20:57N 33°32' W 118°31'  
2017-Oct-23 23:15N 33°26' W 118°34'2 5.7
2017-Oct-23 22:59N 33°27' W 118°35'21 4.4
2017-Oct-23 18:13N 33°42' W 118°18'1 4.9
2017-Oct-23 18:00N 33°42' W 118°17'1 2.4
2017-Oct-23 17:30N 33°43' W 118°16'  

Dump ship's entire track history